createdAt,value
2018-11-27T00:01:30.288Z,93724.92
2018-11-27T00:03:59.796Z,93722.86
2018-11-27T00:06:29.717Z,93719.48
2018-11-27T00:08:59.369Z,93724.73
2018-11-27T00:11:29.214Z,93736.57
2018-11-27T00:13:58.508Z,93743.25
2018-11-27T00:16:27.960Z,93732.38
2018-11-27T00:18:57.301Z,93738.48
2018-11-27T00:21:26.597Z,93738.52
2018-11-27T00:23:56.077Z,93740.59
2018-11-27T00:26:25.752Z,93741.45
2018-11-27T00:28:55.188Z,93736.66
2018-11-27T00:31:24.956Z,93734.71
2018-11-27T00:33:54.656Z,93742.87
2018-11-27T00:36:24.401Z,93738.20
2018-11-27T00:38:54.044Z,93744.11
2018-11-27T00:41:23.313Z,93744.89
2018-11-27T00:43:53.077Z,93754.96
2018-11-27T00:46:22.435Z,93748.61
2018-11-27T00:48:51.861Z,93753.27
2018-11-27T00:51:21.228Z,93759.70
2018-11-27T00:53:50.740Z,93761.63
2018-11-27T00:56:20.380Z,93765.86
2018-11-27T00:58:50.364Z,93768.30
2018-11-27T01:01:20.041Z,93762.02
2018-11-27T01:03:49.472Z,93759.95
2018-11-27T01:06:19.042Z,93763.81
2018-11-27T01:08:48.798Z,93752.87
2018-11-27T01:11:18.562Z,93753.60
2018-11-27T01:13:48.523Z,93754.86
2018-11-27T01:16:17.945Z,93755.89
2018-11-27T01:18:47.309Z,93749.07
2018-11-27T01:21:16.559Z,93747.01
2018-11-27T01:23:46.044Z,93740.16
2018-11-27T01:26:15.490Z,93749.88
2018-11-27T01:28:45.055Z,93747.55
2018-11-27T01:31:14.769Z,93749.07
2018-11-27T01:33:44.226Z,93748.80
2018-11-27T01:36:13.776Z,93745.66
2018-11-27T01:38:43.332Z,93743.22
2018-11-27T01:41:12.904Z,93741.78
2018-11-27T01:43:42.298Z,93745.34
2018-11-27T01:46:12.080Z,93747.18
2018-11-27T01:48:41.504Z,93747.19
2018-11-27T01:51:11.021Z,93746.52
2018-11-27T01:53:40.564Z,93751.03
2018-11-27T01:56:10.337Z,93747.49
2018-11-27T01:58:40.001Z,93746.05
2018-11-27T02:01:09.733Z,93741.30
2018-11-27T02:03:39.216Z,93731.54
2018-11-27T02:06:08.812Z,93736.75
2018-11-27T02:08:38.376Z,93742.68
2018-11-27T02:11:08.134Z,93739.38
2018-11-27T02:13:37.582Z,93733.18
2018-11-27T02:16:07.048Z,93731.44
2018-11-27T02:18:36.304Z,93731.48
2018-11-27T02:21:06.005Z,93722.88
2018-11-27T02:23:35.505Z,93725.95
2018-11-27T02:26:05.104Z,93719.50
2018-11-27T02:28:34.568Z,93722.61
2018-11-27T02:31:04.496Z,93723.43
2018-11-27T02:33:34.141Z,93729.93
2018-11-27T02:36:03.919Z,93736.42
2018-11-27T02:38:33.632Z,93737.73
2018-11-27T02:41:03.411Z,93741.91
2018-11-27T02:43:32.951Z,93740.20
2018-11-27T02:46:02.445Z,93744.11
2018-11-27T02:48:31.744Z,93745.02
2018-11-27T02:51:01.199Z,93731.45
2018-11-27T02:53:31.135Z,93734.95
2018-11-27T02:56:00.592Z,93731.70
2018-11-27T02:58:30.392Z,93737.02
2018-11-27T03:00:59.849Z,93746.39
2018-11-27T03:03:29.466Z,93748.21
2018-11-27T03:05:58.841Z,93752.75
2018-11-27T03:08:28.403Z,93753.54
2018-11-27T03:10:58.068Z,93749.16
2018-11-27T03:13:27.680Z,93746.56
2018-11-27T03:15:57.246Z,93742.19
2018-11-27T03:18:27.039Z,93748.41
2018-11-27T03:20:56.887Z,93743.37
2018-11-27T03:23:26.584Z,93749.95
2018-11-27T03:25:56.244Z,93750.03
2018-11-27T03:28:25.799Z,93747.07
2018-11-27T03:30:55.342Z,93751.25
2018-11-27T03:33:25.155Z,93751.36
2018-11-27T03:35:54.869Z,93751.91
2018-11-27T03:38:24.197Z,93737.75
2018-11-27T03:40:53.630Z,93733.09
2018-11-27T03:43:23.137Z,93731.84
2018-11-27T03:45:52.489Z,93730.28
2018-11-27T03:48:21.829Z,93735.29
2018-11-27T03:50:51.216Z,93742.77
2018-11-27T03:53:20.801Z,93737.27
2018-11-27T03:55:50.328Z,93734.45
2018-11-27T03:58:19.953Z,93736.58
2018-11-27T04:00:49.479Z,93744.52
2018-11-27T04:03:18.775Z,93749.72
2018-11-27T04:05:48.424Z,93745.95
2018-11-27T04:08:18.206Z,93761.02
2018-11-27T04:10:47.895Z,93753.91
2018-11-27T04:13:17.655Z,93756.44
2018-11-27T04:15:47.242Z,93752.84
2018-11-27T04:18:16.566Z,93756.47
2018-11-27T04:20:45.936Z,93761.28
2018-11-27T04:23:15.390Z,93757.11
2018-11-27T04:25:45.141Z,93767.03
2018-11-27T04:28:15.026Z,93767.06
2018-11-27T04:30:44.613Z,93771.99
2018-11-27T04:33:13.876Z,93766.11
2018-11-27T04:35:43.281Z,93774.56
2018-11-27T04:38:12.725Z,93772.13
2018-11-27T04:40:42.474Z,93773.27
2018-11-27T04:43:12.106Z,93776.63
2018-11-27T04:45:41.509Z,93773.78
2018-11-27T04:48:11.095Z,93775.54
2018-11-27T04:50:40.395Z,93780.42
2018-11-27T04:53:09.958Z,93782.11
2018-11-27T04:55:39.468Z,93786.20
2018-11-27T04:58:09.872Z,93779.08
2018-11-27T05:00:39.787Z,93777.66
2018-11-27T05:03:09.378Z,93773.05
2018-11-27T05:05:39.148Z,93770.73
2018-11-27T05:08:08.743Z,93768.38
2018-11-27T05:10:38.541Z,93769.60
2018-11-27T05:13:09.209Z,93771.39
2018-11-27T05:15:38.615Z,93773.06
2018-11-27T05:18:08.031Z,93773.87
2018-11-27T05:20:37.421Z,93772.58
2018-11-27T05:23:07.327Z,93772.59
2018-11-27T05:25:36.972Z,93763.01
2018-11-27T05:28:07.068Z,93764.87
2018-11-27T05:30:36.656Z,93775.31
2018-11-27T05:33:06.417Z,93782.91
2018-11-27T05:35:35.825Z,93778.69
2018-11-27T05:38:06.026Z,93781.55
2018-11-27T05:40:35.604Z,93778.18
2018-11-27T05:43:08.440Z,93779.44
2018-11-27T05:45:37.701Z,93780.99
2018-11-27T05:48:07.189Z,93781.56
2018-11-27T05:50:36.568Z,93781.62
2018-11-27T05:53:06.873Z,93771.16
2018-11-27T05:55:36.396Z,93777.94
2018-11-27T05:58:06.311Z,93776.61
2018-11-27T06:00:35.861Z,93774.22
2018-11-27T06:03:05.697Z,93779.10
2018-11-27T06:05:35.179Z,93784.36
2018-11-27T06:08:04.956Z,93787.31
2018-11-27T06:10:34.578Z,93782.23
2018-11-27T06:13:04.308Z,93785.59
2018-11-27T06:15:34.065Z,93783.16
2018-11-27T06:18:04.539Z,93785.98
2018-11-27T06:20:33.965Z,93779.06
2018-11-27T06:23:03.541Z,93766.91
2018-11-27T06:25:33.324Z,93767.23
2018-11-27T06:28:04.190Z,93777.17
2018-11-27T06:30:34.849Z,93779.17
2018-11-27T06:33:04.609Z,93779.49
2018-11-27T06:35:35.745Z,93782.72
2018-11-27T06:38:07.035Z,93793.38
2018-11-27T06:40:36.637Z,93790.53
2018-11-27T06:43:08.070Z,93791.84
2018-11-27T06:45:38.102Z,93796.28
2018-11-27T06:48:08.044Z,93790.81
2018-11-27T06:50:37.417Z,93794.75
2018-11-27T06:53:07.987Z,93803.70
2018-11-27T06:55:37.740Z,93785.83
2018-11-27T06:58:08.095Z,93772.80
2018-11-27T07:00:37.936Z,93761.38
2018-11-27T07:03:11.091Z,93763.77
2018-11-27T07:05:40.882Z,93761.91
2018-11-27T07:08:10.699Z,93761.91
2018-11-27T07:10:42.140Z,93760.09
2018-11-27T07:13:15.026Z,93756.22
2018-11-27T07:15:44.771Z,93751.53
2018-11-27T07:18:14.175Z,93757.01
2018-11-27T07:20:43.599Z,93761.42
2018-11-27T07:23:13.118Z,93760.92
2018-11-27T07:25:44.292Z,93756.47
2018-11-27T07:28:13.908Z,93757.54
2018-11-27T07:30:43.775Z,93758.04
2018-11-27T07:33:13.340Z,93761.45
2018-11-27T07:35:42.762Z,93765.08
2018-11-27T07:38:12.830Z,93769.02
2018-11-27T07:40:42.507Z,93768.73
2018-11-27T07:43:13.299Z,93766.14
2018-11-27T07:45:43.145Z,93759.36
2018-11-27T07:48:12.547Z,93766.14
2018-11-27T07:50:41.953Z,93771.34
2018-11-27T07:53:11.524Z,93769.78
2018-11-27T07:55:41.166Z,93777.86
2018-11-27T07:58:10.952Z,93785.45
2018-11-27T08:00:40.549Z,93770.03
2018-11-27T08:03:10.265Z,93772.39
2018-11-27T08:05:41.613Z,93770.03
2018-11-27T08:08:13.500Z,93770.03
2018-11-27T08:10:43.752Z,93769.25
2018-11-27T08:13:13.875Z,93767.69
2018-11-27T08:15:43.619Z,93771.59
2018-11-27T08:18:13.296Z,93761.42
2018-11-27T08:20:42.728Z,93771.85
2018-11-27T08:23:12.623Z,93762.99
2018-11-27T08:25:42.633Z,93767.44
2018-11-27T08:28:12.290Z,93767.95
2018-11-27T08:30:43.491Z,93768.45
2018-11-27T08:33:12.304Z,93765.62
2018-11-27T08:35:42.036Z,93765.89
2018-11-27T08:38:11.647Z,93768.75
2018-11-27T08:40:41.152Z,93770.30
2018-11-27T08:43:10.771Z,93766.91
2018-11-27T08:45:40.349Z,93768.75
2018-11-27T08:48:09.775Z,93766.40
2018-11-27T08:50:39.208Z,93768.73
2018-11-27T08:53:08.545Z,93770.81
2018-11-27T08:55:40.852Z,93770.05
2018-11-27T08:58:13.252Z,93764.03
2018-11-27T09:00:42.717Z,93765.63
2018-11-27T09:03:12.270Z,93759.10
2018-11-27T09:05:41.738Z,93757.25
2018-11-27T09:08:11.542Z,93753.63
2018-11-27T09:10:41.056Z,93755.69
2018-11-27T09:13:10.484Z,93751.77
2018-11-27T09:15:40.204Z,93749.43
2018-11-27T09:18:18.685Z,93740.56
2018-11-27T09:20:48.331Z,93727.53
2018-11-27T09:23:17.657Z,93730.92
2018-11-27T09:25:47.060Z,93727.52
2018-11-27T09:28:16.454Z,93723.08
2018-11-27T09:30:46.038Z,93722.30
2018-11-27T09:33:15.958Z,93726.73
2018-11-27T09:35:45.590Z,93733.52
2018-11-27T09:38:15.159Z,93731.70
2018-11-27T09:40:44.819Z,93730.65
2018-11-27T09:43:14.257Z,93729.34
2018-11-27T09:45:45.240Z,93730.67
2018-11-27T09:48:14.786Z,93725.98
2018-11-27T09:50:44.417Z,93731.45
2018-11-27T09:53:15.425Z,93738.42
2018-11-27T09:55:44.845Z,93733.50
2018-11-27T09:58:14.570Z,93744.72
2018-11-27T10:00:44.203Z,93731.41
2018-11-27T10:03:15.226Z,93729.59
2018-11-27T10:05:44.883Z,93728.02
2018-11-27T10:08:14.317Z,93719.44
2018-11-27T10:10:44.037Z,93710.05
2018-11-27T10:13:13.558Z,93715.27
2018-11-27T10:15:42.909Z,93721.22
2018-11-27T10:18:12.889Z,93718.34
2018-11-27T10:20:43.307Z,93719.12
2018-11-27T10:23:15.081Z,93719.66
2018-11-27T10:25:44.485Z,93722.55
2018-11-27T10:28:13.768Z,93721.75
2018-11-27T10:30:43.312Z,93712.12
2018-11-27T10:33:13.246Z,93712.13
2018-11-27T10:35:45.615Z,93711.10
2018-11-27T10:38:15.050Z,93710.84
2018-11-27T10:40:45.034Z,93710.84
2018-11-27T10:43:19.764Z,93711.88
2018-11-27T10:45:44.928Z,93716.30
2018-11-27T10:48:14.524Z,93714.47
2018-11-27T10:50:44.290Z,93713.45
2018-11-27T10:53:14.390Z,93715.02
2018-11-27T10:55:43.773Z,93708.76
2018-11-27T10:58:13.183Z,93706.93
2018-11-27T11:00:48.154Z,93703.02
2018-11-27T11:03:24.838Z,93704.83
2018-11-27T11:05:55.427Z,93711.63
2018-11-27T11:08:25.017Z,93706.66
2018-11-27T11:10:54.633Z,93711.86
2018-11-27T11:13:24.472Z,93702.73
2018-11-27T11:15:53.852Z,93695.44
2018-11-27T11:18:23.439Z,93692.00
2018-11-27T11:20:53.076Z,93690.91
2018-11-27T11:23:22.814Z,93696.42
2018-11-27T11:25:52.193Z,93698.50
2018-11-27T11:28:25.628Z,93700.02
2018-11-27T11:30:55.127Z,93688.81
2018-11-27T11:33:24.882Z,93692.16
2018-11-27T11:35:54.712Z,93700.23
2018-11-27T11:38:24.483Z,93689.52
2018-11-27T11:40:54.120Z,93693.45
2018-11-27T11:43:23.841Z,93697.10
2018-11-27T11:45:53.584Z,93689.03
2018-11-27T11:48:23.352Z,93696.61
2018-11-27T11:50:53.045Z,93698.14
2018-11-27T11:53:22.661Z,93697.63
2018-11-27T11:55:52.941Z,93688.53
2018-11-27T11:58:22.321Z,93685.91
2018-11-27T12:00:53.011Z,93685.14
2018-11-27T12:03:22.875Z,93688.03
2018-11-27T12:05:52.556Z,93695.12
2018-11-27T12:08:22.788Z,93684.66
2018-11-27T12:10:52.467Z,93683.34
2018-11-27T12:13:22.256Z,93684.13
2018-11-27T12:15:51.919Z,93693.55
2018-11-27T12:18:21.986Z,93689.35
2018-11-27T12:20:51.732Z,93682.55
2018-11-27T12:23:21.576Z,93681.73
2018-11-27T12:25:51.574Z,93677.58
2018-11-27T12:28:20.947Z,93679.65
2018-11-27T12:30:50.340Z,93679.13
2018-11-27T12:33:19.709Z,93682.52
2018-11-27T12:35:49.417Z,93677.31
2018-11-27T12:38:19.015Z,93679.91
2018-11-27T12:40:48.463Z,93670.77
2018-11-27T12:43:18.202Z,93673.14
2018-11-27T12:45:47.569Z,93672.86
2018-11-27T12:48:17.229Z,93662.92
2018-11-27T12:50:48.865Z,93655.91
2018-11-27T12:53:18.956Z,93645.95
2018-11-27T12:55:49.789Z,93653.78
2018-11-27T12:58:19.412Z,93655.38
2018-11-27T13:00:48.814Z,93660.06
2018-11-27T13:03:18.263Z,93665.03
2018-11-27T13:05:47.910Z,93661.33
2018-11-27T13:08:23.623Z,93656.37
2018-11-27T13:10:53.075Z,93654.02
2018-11-27T13:13:22.629Z,93648.53
2018-11-27T13:15:52.568Z,93654.80
2018-11-27T13:18:22.463Z,93652.23
2018-11-27T13:20:52.497Z,93650.91
2018-11-27T13:23:22.037Z,93650.10
2018-11-27T13:25:51.495Z,93655.86
2018-11-27T13:28:21.043Z,93648.56
2018-11-27T13:31:54.194Z,93656.13
2018-11-27T13:34:23.619Z,93666.31
2018-11-27T13:36:52.972Z,93671.27
2018-11-27T13:39:34.532Z,93667.36
2018-11-27T13:42:04.408Z,93672.06
2018-11-27T13:44:33.759Z,93668.42
2018-11-27T13:47:03.742Z,93670.73
2018-11-27T13:49:33.291Z,93672.30
2018-11-27T13:52:02.941Z,93676.19
2018-11-27T13:54:32.804Z,93672.58
2018-11-27T13:57:02.367Z,93675.98
2018-11-27T13:59:31.904Z,93674.11
2018-11-27T14:02:01.326Z,93677.48
2018-11-27T14:04:37.590Z,93670.42
2018-11-27T14:07:06.915Z,93673.58
2018-11-27T14:09:36.656Z,93678.80
2018-11-27T14:12:06.126Z,93678.30
2018-11-27T14:14:35.745Z,93677.54
2018-11-27T14:17:05.704Z,93675.23
2018-11-27T14:19:35.436Z,93677.54
2018-11-27T14:22:05.008Z,93668.72
2018-11-27T14:24:35.248Z,93672.09
2018-11-27T14:27:05.188Z,93672.08
2018-11-27T14:29:35.068Z,93668.69
2018-11-27T14:32:04.820Z,93672.13
2018-11-27T14:34:34.553Z,93675.50
2018-11-27T14:37:05.764Z,93676.75
2018-11-27T14:39:35.029Z,93678.89
2018-11-27T14:42:04.861Z,93677.33
2018-11-27T14:44:34.316Z,93680.19
2018-11-27T14:47:03.912Z,93678.38
2018-11-27T14:49:33.309Z,93678.91
2018-11-27T14:52:03.204Z,93675.48
2018-11-27T14:54:32.678Z,93676.03
2018-11-27T14:57:02.414Z,93675.77
2018-11-27T14:59:32.202Z,93678.14
2018-11-27T15:02:01.805Z,93681.55
2018-11-27T15:04:31.291Z,93688.34
2018-11-27T15:07:00.692Z,93687.30
2018-11-27T15:09:30.634Z,93689.66
2018-11-27T15:12:00.447Z,93682.87
2018-11-27T15:14:30.266Z,93678.70
2018-11-27T15:16:59.972Z,93673.48
2018-11-27T15:19:29.724Z,93671.92
2018-11-27T15:21:59.854Z,93669.57
2018-11-27T15:24:29.717Z,93669.59
2018-11-27T15:26:59.183Z,93670.09
2018-11-27T15:29:29.011Z,93675.33
2018-11-27T15:31:58.849Z,93683.41
2018-11-27T15:34:28.255Z,93681.82
2018-11-27T15:36:57.909Z,93680.27
2018-11-27T15:39:27.380Z,93684.95
2018-11-27T15:41:56.904Z,93684.19
2018-11-27T15:44:26.697Z,93680.52
2018-11-27T15:46:56.598Z,93684.96
2018-11-27T15:49:26.784Z,93688.37
2018-11-27T15:51:56.280Z,93694.62
2018-11-27T15:54:26.058Z,93686.03
2018-11-27T15:56:55.983Z,93684.19
2018-11-27T15:59:25.562Z,93680.30
2018-11-27T16:01:54.961Z,93685.78
2018-11-27T16:04:24.665Z,93686.31
2018-11-27T16:06:54.096Z,93684.47
2018-11-27T16:09:23.687Z,93675.62
2018-11-27T16:11:53.629Z,93679.23
2018-11-27T16:14:23.125Z,93676.39
2018-11-27T16:16:53.052Z,93681.09
2018-11-27T16:19:22.713Z,93686.33
2018-11-27T16:21:52.148Z,93687.12
2018-11-27T16:24:22.084Z,93678.22
2018-11-27T16:26:51.870Z,93681.90
2018-11-27T16:29:21.600Z,93682.42
2018-11-27T16:31:51.012Z,93679.30
2018-11-27T16:34:20.452Z,93682.16
2018-11-27T16:36:50.998Z,93682.42
2018-11-27T16:39:19.318Z,93680.84
2018-11-27T16:41:49.235Z,93682.14
2018-11-27T16:44:18.609Z,93682.16
2018-11-27T16:46:48.058Z,93680.30
2018-11-27T16:49:17.469Z,93677.44
2018-11-27T16:51:46.892Z,93669.60
2018-11-27T16:54:16.396Z,93669.64
2018-11-27T16:56:46.054Z,93670.91
2018-11-27T16:59:15.915Z,93671.44
2018-11-27T17:01:45.297Z,93680.29
2018-11-27T17:04:14.694Z,93679.48
2018-11-27T17:06:44.609Z,93682.33
2018-11-27T17:09:14.224Z,93681.75
2018-11-27T17:11:43.985Z,93681.49
2018-11-27T17:14:14.068Z,93681.49
2018-11-27T17:16:44.080Z,93683.02
2018-11-27T17:19:14.008Z,93683.29
2018-11-27T17:21:43.564Z,93686.14
2018-11-27T17:24:13.321Z,93686.88
2018-11-27T17:26:42.888Z,93688.68
2018-11-27T17:29:12.448Z,93689.98
2018-11-27T17:31:41.952Z,93681.64
2018-11-27T17:34:13.389Z,93687.03
2018-11-27T17:36:43.145Z,93683.39
2018-11-27T17:39:13.227Z,93689.43
2018-11-27T17:41:42.693Z,93681.11
2018-11-27T17:44:15.655Z,93673.20
2018-11-27T17:46:45.235Z,93673.41
2018-11-27T17:49:14.996Z,93672.79
2018-11-27T17:51:44.783Z,93672.03
2018-11-27T17:54:14.591Z,93678.05
2018-11-27T17:56:44.264Z,93674.73
2018-11-27T17:59:13.665Z,93671.66
2018-11-27T18:01:43.028Z,93670.05
2018-11-27T18:04:12.549Z,93671.91
2018-11-27T18:06:42.200Z,93665.42
2018-11-27T18:09:11.649Z,93673.50
2018-11-27T18:11:41.469Z,93670.62
2018-11-27T18:14:10.952Z,93672.20
2018-11-27T18:16:40.508Z,93673.46
2018-11-27T18:19:09.925Z,93678.17
2018-11-27T18:21:39.595Z,93679.98
2018-11-27T18:24:09.429Z,93680.50
2018-11-27T18:26:39.015Z,93682.81
2018-11-27T18:29:08.461Z,93688.83
2018-11-27T18:31:38.177Z,93677.66
2018-11-27T18:34:07.539Z,93681.27
2018-11-27T18:36:37.085Z,93683.59
2018-11-27T18:39:10.026Z,93684.42
2018-11-27T18:41:39.794Z,93685.75
2018-11-27T18:44:09.342Z,93686.31
2018-11-27T18:46:38.748Z,93679.05
2018-11-27T18:49:08.474Z,93674.34
2018-11-27T18:51:38.177Z,93687.91
2018-11-27T18:54:07.817Z,93692.32
2018-11-27T18:56:37.468Z,93695.95
2018-11-27T18:59:06.792Z,93695.23
2018-11-27T19:01:36.086Z,93705.63
2018-11-27T19:04:06.005Z,93709.24
2018-11-27T19:06:35.779Z,93701.73
2018-11-27T19:09:08.500Z,93705.37
2018-11-27T19:11:38.365Z,93701.47
2018-11-27T19:14:07.932Z,93705.92
2018-11-27T19:16:37.679Z,93711.42
2018-11-27T19:19:07.215Z,93711.95
2018-11-27T19:21:37.180Z,93703.89
2018-11-27T19:24:06.925Z,93711.97
2018-11-27T19:26:36.385Z,93707.80
2018-11-27T19:29:06.416Z,93714.30
2018-11-27T19:31:35.824Z,93713.47
2018-11-27T19:34:05.507Z,93716.37
2018-11-27T19:36:35.156Z,93713.25
2018-11-27T19:39:06.136Z,93715.07
2018-11-27T19:41:35.932Z,93713.75
2018-11-27T19:44:05.608Z,93716.33
2018-11-27T19:46:35.197Z,93708.78
2018-11-27T19:49:04.918Z,93713.97
2018-11-27T19:51:34.342Z,93713.78
2018-11-27T19:54:03.908Z,93713.28
2018-11-27T19:56:33.670Z,93715.38
2018-11-27T19:59:03.086Z,93715.34
2018-11-27T20:01:32.537Z,93713.77
2018-11-27T20:04:02.396Z,93712.95
2018-11-27T20:06:31.989Z,93712.36
2018-11-27T20:09:01.558Z,93711.28
2018-11-27T20:11:31.157Z,93713.64
2018-11-27T20:14:00.784Z,93719.34
2018-11-27T20:16:30.328Z,93722.67
2018-11-27T20:18:59.841Z,93713.25
2018-11-27T20:21:29.324Z,93717.69
2018-11-27T20:23:58.835Z,93720.09
2018-11-27T20:26:28.225Z,93721.42
2018-11-27T20:28:57.689Z,93724.47
2018-11-27T20:31:27.032Z,93724.98
2018-11-27T20:33:56.392Z,93725.73
2018-11-27T20:36:26.031Z,93732.52
2018-11-27T20:38:55.575Z,93731.41
2018-11-27T20:41:25.132Z,93734.94
2018-11-27T20:43:54.744Z,93746.57
2018-11-27T20:46:24.508Z,93751.67
2018-11-27T20:48:54.013Z,93761.47
2018-11-27T20:51:23.462Z,93764.78
2018-11-27T20:53:53.019Z,93763.91
2018-11-27T20:56:22.508Z,93767.67
2018-11-27T20:58:51.955Z,93772.13
2018-11-27T21:01:21.324Z,93768.59
2018-11-27T21:03:50.909Z,93765.39
2018-11-27T21:06:20.486Z,93772.58
2018-11-27T21:08:50.009Z,93772.58
2018-11-27T21:11:19.617Z,93773.61
2018-11-27T21:13:49.000Z,93771.39
2018-11-27T21:16:18.372Z,93773.97
2018-11-27T21:18:47.672Z,93768.72
2018-11-27T21:21:17.385Z,93766.22
2018-11-27T21:23:47.094Z,93764.92
2018-11-27T21:26:16.429Z,93764.08
2018-11-27T21:28:45.725Z,93765.39
2018-11-27T21:31:15.093Z,93772.84
2018-11-27T21:33:44.505Z,93777.79
2018-11-27T21:36:14.107Z,93768.94
2018-11-27T21:38:43.798Z,93765.78
2018-11-27T21:41:13.573Z,93762.68
2018-11-27T21:43:43.019Z,93772.83
2018-11-27T21:46:12.437Z,93778.53
2018-11-27T21:48:42.332Z,93777.61
2018-11-27T21:51:12.030Z,93780.63
2018-11-27T21:53:41.517Z,93779.24
2018-11-27T21:56:11.006Z,93777.91
2018-11-27T21:58:40.499Z,93784.39
2018-11-27T22:01:09.904Z,93786.42
2018-11-27T22:03:39.652Z,93784.95
2018-11-27T22:06:09.056Z,93785.30
2018-11-27T22:08:41.633Z,93787.67
2018-11-27T22:11:11.367Z,93794.23
2018-11-27T22:13:40.940Z,93800.55
2018-11-27T22:16:10.344Z,93799.41
2018-11-27T22:18:39.964Z,93797.96
2018-11-27T22:21:09.717Z,93795.52
2018-11-27T22:23:39.390Z,93804.92
2018-11-27T22:26:08.889Z,93806.27
2018-11-27T22:28:38.284Z,93806.56
2018-11-27T22:31:07.948Z,93798.56
2018-11-27T22:33:37.345Z,93805.78
2018-11-27T22:36:06.843Z,93801.39
2018-11-27T22:38:36.267Z,93803.92
2018-11-27T22:41:06.173Z,93809.84
2018-11-27T22:43:35.706Z,93813.64
2018-11-27T22:46:05.348Z,93825.63
2018-11-27T22:48:34.789Z,93818.84
2018-11-27T22:51:04.432Z,93822.17
2018-11-27T22:53:33.978Z,93816.91
2018-11-27T22:56:03.474Z,93817.72
2018-11-27T22:58:32.828Z,93822.75
2018-11-27T23:01:02.646Z,93818.25
2018-11-27T23:03:32.548Z,93820.09
2018-11-27T23:06:02.019Z,93819.87
2018-11-27T23:08:31.512Z,93816.75
2018-11-27T23:11:01.018Z,93815.97
2018-11-27T23:13:30.646Z,93812.75
2018-11-27T23:16:00.584Z,93808.98
2018-11-27T23:18:30.042Z,93807.69
2018-11-27T23:20:59.856Z,93804.75
2018-11-27T23:23:29.633Z,93804.73
2018-11-27T23:25:59.049Z,93793.38
2018-11-27T23:28:28.379Z,93786.25
2018-11-27T23:30:57.995Z,93794.78
2018-11-27T23:33:27.490Z,93799.06
2018-11-27T23:35:57.228Z,93797.48
2018-11-27T23:38:26.595Z,93798.67
2018-11-27T23:40:56.052Z,93798.56
2018-11-27T23:43:25.624Z,93801.66
2018-11-27T23:45:55.471Z,93797.23
2018-11-27T23:48:25.089Z,93791.77
2018-11-27T23:50:54.559Z,93789.61
2018-11-27T23:53:23.989Z,93796.29
2018-11-27T23:55:53.779Z,93802.23
2018-11-27T23:58:23.109Z,93804.48
